map of TJA home
TJA - Airport
Location
City:  Tarija, Cercado, Tarija, Bolivia
Name:Capitán Oriel Lea Plaza
ICAO:SLTJ
IATA:TJA

Details
Type:Airport (Aerodrome, Airfield)
Use:Public/Civil, Military
Latitude:21°33'21"S (-21.555735)
Longitude:64°42'05"W (-64.701324)
Datum:WGS 1984
Elevation:6084 ft (1854 m)
Variation:9.58°W (WMM2015 magnetic declination)
-0.20° annual change
Runways:1
Longest:10007 × 148 ft (3050 × 45 m), paved

Time
Time Zone:UTC-4
Local Time:

Weather
METAR:SLTJ 201700Z 18008KT 9999 BKN030 OVC070 22/16 Q1019

Related Locations
Nearby:
Farthest:VHSK: 12341 mi / 19860 km
Shek Kong Camp [Sek Kong], HK

Find:

   beyond  
but within

Other Information
Maps:
NOTAMs:
Links:
Sources:

  
  • flag of Bolivia
  • flag of Tarija
  

Sectional Chart

Flight Planning
at skyvector.com

Satellite Image

Google Maps Satellite view

 

Copyright © 2004-2018 Karl L. Swartz. All rights reserved.
The Great Circle Mapper name and logo are trademarks of the Great Circle Mapper.
All other trademarks mentioned herein belong to their respective owners.
Please see credits for attibutions and further copyright information.

  Follow gcmap on Facebook Follow gcmap on Twitter Follow gcmap on Google+ GCmap on LinkedIn

hCard Microformat

Geo Microformat